createdAt,value
2019-01-15T00:02:08.832Z,6.19
2019-01-15T00:04:40.447Z,6.21
2019-01-15T00:07:09.501Z,6.32
2019-01-15T00:09:43.060Z,6.33
2019-01-15T00:12:11.861Z,6.21
2019-01-15T00:15:05.951Z,6.21
2019-01-15T00:17:35.217Z,5.93
2019-01-15T00:20:09.977Z,6.17
2019-01-15T00:22:39.128Z,6.17
2019-01-15T00:25:11.909Z,6.24
2019-01-15T00:27:40.676Z,6.18
2019-01-15T00:30:19.459Z,6.24
2019-01-15T00:32:54.268Z,6.25
2019-01-15T00:35:25.104Z,6.26
2019-01-15T00:38:01.227Z,6.19
2019-01-15T00:40:31.238Z,6.23
2019-01-15T00:43:03.137Z,6.21
2019-01-15T00:45:32.133Z,6.19
2019-01-15T00:48:04.268Z,6.16
2019-01-15T00:50:35.089Z,6.13
2019-01-15T00:53:07.097Z,6.03
2019-01-15T00:55:47.503Z,6.05
2019-01-15T00:58:19.461Z,6.00
2019-01-15T01:00:48.696Z,6.04
2019-01-15T01:03:23.824Z,6.10
2019-01-15T01:06:00.306Z,6.10
2019-01-15T01:08:34.400Z,6.10
2019-01-15T01:11:07.538Z,6.04
2019-01-15T01:13:39.126Z,6.07
2019-01-15T01:16:07.970Z,6.04
2019-01-15T01:18:39.438Z,6.04
2019-01-15T01:21:12.489Z,6.14
2019-01-15T01:23:41.638Z,6.09
2019-01-15T01:26:10.784Z,6.13
2019-01-15T01:28:39.996Z,6.04
2019-01-15T01:31:09.933Z,6.07
2019-01-15T01:33:45.499Z,6.07
2019-01-15T01:36:16.839Z,6.07
2019-01-15T01:38:48.774Z,6.02
2019-01-15T01:41:20.402Z,5.97
2019-01-15T01:43:50.283Z,5.97
2019-01-15T01:46:23.325Z,6.04
2019-01-15T01:49:10.808Z,6.01
2019-01-15T01:52:02.773Z,6.05
2019-01-15T01:54:41.875Z,5.91
2019-01-15T01:57:14.421Z,5.87
2019-01-15T01:59:44.712Z,5.81
2019-01-15T02:02:15.701Z,5.78
2019-01-15T02:04:46.516Z,5.82
2019-01-15T02:07:20.265Z,5.80
2019-01-15T02:09:51.576Z,5.88
2019-01-15T02:12:21.906Z,5.88
2019-01-15T02:14:51.954Z,5.91
2019-01-15T02:17:22.349Z,5.96
2019-01-15T02:19:51.851Z,5.93
2019-01-15T02:22:30.411Z,5.93
2019-01-15T02:25:01.204Z,5.98
2019-01-15T02:27:34.452Z,6.08
2019-01-15T02:30:16.643Z,6.03
2019-01-15T02:32:55.287Z,6.05
2019-01-15T02:35:25.673Z,6.09
2019-01-15T02:37:57.240Z,6.20
2019-01-15T02:40:26.233Z,6.32
2019-01-15T02:42:56.723Z,6.35
2019-01-15T02:45:27.626Z,6.43
2019-01-15T02:48:03.102Z,6.43
2019-01-15T02:50:45.119Z,6.44
2019-01-15T02:53:05.934Z,6.43
2019-01-15T02:55:34.936Z,6.47
2019-01-15T02:58:06.082Z,6.50
2019-01-15T03:00:36.597Z,6.53
2019-01-15T03:03:05.360Z,6.45
2019-01-15T03:05:37.680Z,6.51
2019-01-15T03:08:08.630Z,6.55
2019-01-15T03:10:39.722Z,6.57
2019-01-15T03:13:10.278Z,6.55
2019-01-15T03:15:41.338Z,6.54
2019-01-15T03:18:14.332Z,6.68
2019-01-15T03:20:44.806Z,6.66
2019-01-15T03:23:14.000Z,6.61
2019-01-15T03:25:42.749Z,6.63
2019-01-15T03:28:12.002Z,6.67
2019-01-15T03:30:40.988Z,6.64
2019-01-15T03:33:09.687Z,6.59
2019-01-15T03:35:38.967Z,6.65
2019-01-15T03:38:09.735Z,6.67
2019-01-15T03:40:38.701Z,6.73
2019-01-15T03:43:07.407Z,6.73
2019-01-15T03:45:37.043Z,6.74
2019-01-15T03:48:05.602Z,6.69
2019-01-15T03:50:40.206Z,6.75
2019-01-15T03:53:09.165Z,6.81
2019-01-15T03:55:37.793Z,6.87
2019-01-15T03:58:06.373Z,7.00
2019-01-15T04:00:35.424Z,7.06
2019-01-15T04:03:03.910Z,7.03
2019-01-15T04:05:33.176Z,7.09
2019-01-15T04:08:02.666Z,7.17
2019-01-15T04:10:44.185Z,6.98
2019-01-15T04:13:13.045Z,7.03
2019-01-15T04:15:41.628Z,7.16
2019-01-15T04:18:10.301Z,7.13
2019-01-15T04:20:40.062Z,7.23
2019-01-15T04:23:08.928Z,7.29
2019-01-15T04:25:37.560Z,7.35
2019-01-15T04:28:06.373Z,7.29
2019-01-15T04:30:37.206Z,7.08
2019-01-15T04:33:05.689Z,7.05
2019-01-15T04:35:34.796Z,6.98
2019-01-15T04:38:03.331Z,6.94
2019-01-15T04:40:32.094Z,6.86
2019-01-15T04:43:01.150Z,6.85
2019-01-15T04:45:30.002Z,6.72
2019-01-15T04:47:58.978Z,6.76
2019-01-15T04:50:28.329Z,6.76
2019-01-15T04:53:03.909Z,6.77
2019-01-15T04:55:32.587Z,6.87
2019-01-15T04:58:01.276Z,6.86
2019-01-15T05:00:30.118Z,6.75
2019-01-15T05:03:02.469Z,6.68
2019-01-15T05:05:31.430Z,6.74
2019-01-15T05:08:01.568Z,6.70
2019-01-15T05:10:30.585Z,6.74
2019-01-15T05:12:59.360Z,6.76
2019-01-15T05:15:30.246Z,6.72
2019-01-15T05:18:01.286Z,6.75
2019-01-15T05:20:33.241Z,6.83
2019-01-15T05:23:12.611Z,6.78
2019-01-15T05:25:47.908Z,6.72
2019-01-15T05:28:17.682Z,6.74
2019-01-15T05:30:47.192Z,6.68
2019-01-15T05:35:43.708Z,6.67
2019-01-15T05:38:45.078Z,6.67
2019-01-15T05:41:37.278Z,6.67
2019-01-15T05:59:20.691Z,7.07
2019-01-15T06:05:15.701Z,7.20
2019-01-15T06:07:21.369Z,7.21
2019-01-15T06:16:30.722Z,7.21
2019-01-15T06:19:09.976Z,7.27
2019-01-15T06:21:57.702Z,7.35
2019-01-15T06:25:09.393Z,7.51
2019-01-15T06:27:37.056Z,7.61
2019-01-15T06:33:45.544Z,7.62
2019-01-15T06:36:12.103Z,7.53
2019-01-15T11:15:24.908Z,10.56
2019-01-15T11:20:57.011Z,10.49
2019-01-15T11:23:28.163Z,10.55
2019-01-15T11:25:58.940Z,10.67
2019-01-15T11:32:27.201Z,10.62
2019-01-15T11:35:51.446Z,10.58
2019-01-15T11:50:07.220Z,10.42
2019-01-15T11:58:34.035Z,10.44
2019-01-15T12:04:31.545Z,10.61
2019-01-15T12:07:39.058Z,10.56
2019-01-15T12:13:57.407Z,10.55
2019-01-15T12:16:45.080Z,10.55
2019-01-15T12:23:19.890Z,10.78
2019-01-15T12:26:28.232Z,10.63
2019-01-15T12:29:24.701Z,10.72
2019-01-15T12:32:32.326Z,10.62
2019-01-15T12:35:12.080Z,10.62
2019-01-15T12:38:19.196Z,10.63
2019-01-15T12:41:08.073Z,10.59
2019-01-15T12:54:05.512Z,10.56
2019-01-15T13:06:00.844Z,10.97
2019-01-15T13:08:53.854Z,11.22
2019-01-15T13:11:58.716Z,11.05
2019-01-15T13:14:52.870Z,11.24
2019-01-15T13:17:49.232Z,10.94
2019-01-15T13:24:12.910Z,10.88
2019-01-15T13:27:19.701Z,11.12
2019-01-15T13:30:31.631Z,11.10
2019-01-15T13:39:51.324Z,10.59
2019-01-15T13:43:46.069Z,10.47
2019-01-15T13:49:05.506Z,10.65
2019-01-15T13:52:27.700Z,10.59
2019-01-15T13:55:25.436Z,10.59
2019-01-15T13:58:32.739Z,10.59
2019-01-15T14:01:26.109Z,10.61
2019-01-15T14:13:54.685Z,10.50
2019-01-15T14:20:19.526Z,10.30
2019-01-15T14:30:45.117Z,10.12
2019-01-15T14:36:39.284Z,10.17
2019-01-15T14:46:17.157Z,10.34
2019-01-15T14:52:25.573Z,10.38
2019-01-15T14:55:38.496Z,10.33
2019-01-15T14:58:32.714Z,10.47
2019-01-15T15:05:31.793Z,10.59
2019-01-15T15:08:20.242Z,10.58
2019-01-15T15:26:32.916Z,10.28
2019-01-15T15:29:35.135Z,10.28
2019-01-15T15:40:15.789Z,5.55
2019-01-15T15:43:26.800Z,10.28
2019-01-15T15:46:20.730Z,10.19
2019-01-15T15:56:54.714Z,10.16
2019-01-15T16:02:35.596Z,10.29
2019-01-15T16:08:56.961Z,10.28
2019-01-15T16:29:37.285Z,10.14
2019-01-15T16:32:45.546Z,10.17
2019-01-15T16:39:07.492Z,10.02
2019-01-15T16:42:15.086Z,10.03
2019-01-15T16:48:35.733Z,9.97
2019-01-15T16:51:49.676Z,9.97
2019-01-15T16:54:42.475Z,9.96
2019-01-15T17:00:45.843Z,9.94
2019-01-15T17:09:45.002Z,10.12
2019-01-15T17:12:58.546Z,10.16
2019-01-15T17:15:38.148Z,10.10
2019-01-15T17:18:48.356Z,10.13
2019-01-15T17:21:50.493Z,10.15
2019-01-15T17:24:49.401Z,10.19
2019-01-15T17:27:42.779Z,10.13
2019-01-15T17:31:45.724Z,10.15
2019-01-15T17:42:43.008Z,10.12
2019-01-15T17:45:05.102Z,10.02
2019-01-15T17:54:02.665Z,10.19
2019-01-15T18:10:14.534Z,9.98
2019-01-15T18:22:48.740Z,10.12
2019-01-15T18:32:27.868Z,10.13
2019-01-15T18:35:29.881Z,10.17
2019-01-15T18:41:18.894Z,10.00
2019-01-15T18:55:39.042Z,10.24
2019-01-15T19:05:10.827Z,10.26
2019-01-15T19:08:20.775Z,10.25
2019-01-15T19:11:16.034Z,10.34
2019-01-15T19:14:17.609Z,10.37
2019-01-15T19:20:47.261Z,10.24
2019-01-15T19:26:34.579Z,10.16
2019-01-15T19:29:16.232Z,10.08
2019-01-15T19:35:09.113Z,10.01
2019-01-15T19:37:48.263Z,10.03
2019-01-15T19:40:49.392Z,10.16
2019-01-15T19:43:38.375Z,10.16
2019-01-15T19:49:42.681Z,9.91
2019-01-15T19:52:54.228Z,10.01
2019-01-15T20:02:12.687Z,9.82
2019-01-15T20:05:19.219Z,9.88
2019-01-15T20:07:57.731Z,9.94
2019-01-15T20:11:05.685Z,9.96
2019-01-15T20:14:12.407Z,9.95
2019-01-15T20:16:53.111Z,9.84
2019-01-15T20:19:59.605Z,9.91
2019-01-15T20:23:21.026Z,9.81
2019-01-15T20:29:17.392Z,9.92
2019-01-15T20:32:14.764Z,9.99
2019-01-15T20:35:04.144Z,10.12
2019-01-15T20:37:55.282Z,10.19
2019-01-15T20:40:48.864Z,10.02
2019-01-15T20:43:43.949Z,10.06
2019-01-15T20:49:15.588Z,9.94
2019-01-15T20:52:22.645Z,9.83
2019-01-15T20:55:10.212Z,9.96
2019-01-15T20:58:55.374Z,9.82
2019-01-15T21:04:12.730Z,9.82
2019-01-15T21:07:11.101Z,9.94
2019-01-15T21:10:00.838Z,9.83
2019-01-15T21:12:59.576Z,9.76
2019-01-15T21:16:37.563Z,9.85
2019-01-15T21:25:55.661Z,9.96
2019-01-15T21:29:43.085Z,10.04
2019-01-15T21:31:57.411Z,9.99
2019-01-15T21:34:59.474Z,10.02
2019-01-15T21:37:55.552Z,10.14
2019-01-15T21:40:52.062Z,10.19
2019-01-15T21:43:42.723Z,10.17
2019-01-15T22:06:19.173Z,10.22
2019-01-15T22:09:26.535Z,10.16
2019-01-15T22:12:34.394Z,10.25
2019-01-15T22:15:41.099Z,10.12
2019-01-15T22:19:43.252Z,10.19
2019-01-15T22:22:01.082Z,10.18
2019-01-15T22:28:33.736Z,10.16
2019-01-15T22:37:37.218Z,10.18
2019-01-15T22:40:46.059Z,10.19
2019-01-15T22:47:20.077Z,10.01
2019-01-15T22:50:51.876Z,10.18
2019-01-15T23:03:39.480Z,10.21
2019-01-15T23:05:44.887Z,10.16
2019-01-15T23:08:32.529Z,10.18
2019-01-15T23:11:20.468Z,10.01
2019-01-15T23:14:13.853Z,10.02
2019-01-15T23:17:38.266Z,10.06
2019-01-15T23:25:41.620Z,10.19
2019-01-15T23:28:29.960Z,10.01
2019-01-15T23:33:59.739Z,10.00
2019-01-15T23:37:07.469Z,10.01
2019-01-15T23:40:15.347Z,10.12
2019-01-15T23:46:15.474Z,9.99
2019-01-15T23:49:15.686Z,10.02
2019-01-15T23:52:19.310Z,9.94
2019-01-15T23:55:11.034Z,10.02
2019-01-15T23:57:59.090Z,10.04
